createdAt,value
2022-08-18T00:02:06.663Z,75.22
2022-08-18T00:04:48.663Z,76.60
2022-08-18T00:07:24.459Z,75.69
2022-08-18T00:09:55.081Z,77.08
2022-08-18T00:12:45.462Z,74.47
2022-08-18T00:15:18.032Z,76.62
2022-08-18T00:17:48.787Z,76.74
2022-08-18T00:20:24.407Z,76.07
2022-08-18T00:22:55.941Z,76.30
2022-08-18T00:25:27.070Z,76.75
2022-08-18T00:27:57.473Z,76.57
2022-08-18T00:30:27.584Z,76.86
2022-08-18T00:32:59.827Z,76.96
2022-08-18T00:35:37.658Z,76.82
2022-08-18T00:38:23.350Z,76.26
2022-08-18T00:40:57.674Z,76.80
2022-08-18T00:43:42.044Z,75.36
2022-08-18T00:46:17.350Z,76.23
2022-08-18T00:48:48.420Z,76.99
2022-08-18T00:51:51.658Z,75.67
2022-08-18T00:54:27.768Z,76.80
2022-08-18T00:57:02.275Z,76.56
2022-08-18T00:59:37.386Z,77.11
2022-08-18T01:02:11.758Z,76.86
2022-08-18T01:04:56.730Z,75.88
2022-08-18T01:07:38.227Z,76.45
2022-08-18T01:10:09.245Z,77.02
2022-08-18T01:12:44.939Z,76.95
2022-08-18T01:15:29.484Z,76.75
2022-08-18T01:18:23.027Z,76.47
2022-08-18T01:21:33.165Z,74.84
2022-08-18T01:24:06.812Z,76.63
2022-08-18T01:26:51.181Z,75.93
2022-08-18T01:29:22.219Z,76.35
2022-08-18T01:31:57.061Z,76.00
2022-08-18T01:34:29.616Z,77.21
2022-08-18T01:37:00.631Z,77.49
2022-08-18T01:41:23.343Z,76.08
2022-08-18T01:42:21.211Z,76.74
2022-08-18T01:44:52.635Z,76.23
2022-08-18T01:47:22.648Z,77.24
2022-08-18T01:49:52.183Z,74.68
2022-08-18T01:52:23.656Z,76.72
2022-08-18T01:54:53.793Z,76.44
2022-08-18T01:57:24.540Z,76.45
2022-08-18T01:59:55.212Z,77.00
2022-08-18T02:02:29.160Z,75.29
2022-08-18T02:05:07.264Z,76.04
2022-08-18T02:07:38.859Z,76.48
2022-08-18T02:10:16.527Z,76.02
2022-08-18T02:12:46.880Z,76.49
2022-08-18T02:15:17.950Z,75.62
2022-08-18T02:17:49.147Z,75.88
2022-08-18T02:20:21.128Z,77.20
2022-08-18T02:22:52.010Z,77.02
2022-08-18T02:25:23.282Z,76.98
2022-08-18T02:27:53.737Z,77.16
2022-08-18T02:30:24.006Z,76.95
2022-08-18T02:32:54.271Z,76.99
2022-08-18T02:35:24.312Z,77.16
2022-08-18T02:37:54.584Z,77.43
2022-08-18T02:40:24.828Z,77.53
2022-08-18T02:42:55.555Z,77.05
2022-08-18T02:45:26.590Z,76.98
2022-08-18T02:47:59.571Z,77.40
2022-08-18T02:50:29.920Z,77.37
2022-08-18T02:53:00.430Z,77.09
2022-08-18T02:55:31.071Z,76.98
2022-08-18T02:58:03.751Z,77.10
2022-08-18T03:00:34.064Z,77.44
2022-08-18T03:03:05.485Z,77.07
2022-08-18T03:05:36.847Z,77.00
2022-08-18T03:08:07.762Z,77.07
2022-08-18T03:10:38.436Z,77.71
2022-08-18T03:13:08.794Z,77.23
2022-08-18T03:15:38.815Z,77.13
2022-08-18T03:18:08.951Z,77.11
2022-08-18T03:20:39.167Z,77.66
2022-08-18T03:23:11.855Z,76.70
2022-08-18T03:25:52.869Z,76.14
2022-08-18T03:28:24.212Z,76.51
2022-08-18T03:30:54.577Z,76.61
2022-08-18T03:33:23.928Z,77.47
2022-08-18T03:35:54.247Z,77.25
2022-08-18T03:38:24.958Z,77.22
2022-08-18T03:40:56.149Z,76.88
2022-08-18T03:43:51.020Z,76.65
2022-08-18T03:46:25.491Z,76.14
2022-08-18T03:48:55.904Z,76.36
2022-08-18T03:51:29.965Z,77.43
2022-08-18T03:54:23.327Z,77.91
2022-08-18T03:56:58.325Z,77.43
2022-08-18T03:59:36.207Z,77.46
2022-08-18T04:02:27.744Z,77.16
2022-08-18T04:05:09.700Z,77.02
2022-08-18T04:07:55.561Z,77.37
2022-08-18T04:10:26.652Z,77.76
2022-08-18T04:12:56.664Z,77.12
2022-08-18T04:15:27.145Z,77.52
2022-08-18T04:18:06.012Z,77.56
2022-08-18T04:20:37.140Z,78.04
2022-08-18T04:23:07.249Z,77.62
2022-08-18T04:25:37.301Z,77.63
2022-08-18T04:28:06.700Z,77.40
2022-08-18T04:30:37.984Z,77.40
2022-08-18T04:33:08.126Z,77.54
2022-08-18T04:35:38.117Z,76.98
2022-08-18T04:38:08.838Z,77.17
2022-08-18T04:40:39.729Z,77.35
2022-08-18T04:43:16.525Z,77.59
2022-08-18T04:45:52.303Z,76.68
2022-08-18T04:48:22.886Z,77.66
2022-08-18T04:50:53.350Z,77.98
2022-08-18T04:53:41.554Z,77.78
2022-08-18T04:56:11.668Z,77.42
2022-08-18T04:58:41.682Z,77.61
2022-08-18T05:01:11.880Z,77.71
2022-08-18T05:03:50.080Z,75.39
2022-08-18T05:06:20.939Z,77.57
2022-08-18T05:08:51.080Z,77.91
2022-08-18T05:11:22.941Z,77.51
2022-08-18T05:13:57.143Z,77.66
2022-08-18T05:16:28.537Z,77.89
2022-08-18T05:19:01.238Z,77.31
2022-08-18T05:21:38.269Z,77.81
2022-08-18T05:24:10.093Z,77.71
2022-08-18T05:26:43.006Z,77.48
2022-08-18T05:29:19.154Z,77.61
2022-08-18T05:31:52.231Z,78.06
2022-08-18T05:34:23.574Z,77.86
2022-08-18T05:37:05.826Z,77.60
2022-08-18T05:39:48.231Z,77.55
2022-08-18T05:42:22.416Z,78.20
2022-08-18T05:44:55.805Z,79.02
2022-08-18T05:47:30.974Z,78.20
2022-08-18T05:50:06.175Z,78.02
2022-08-18T05:53:02.747Z,77.56
2022-08-18T05:56:05.449Z,77.08
2022-08-18T05:58:51.609Z,77.11
2022-08-18T06:01:38.306Z,77.24
2022-08-18T06:04:33.277Z,77.54
2022-08-18T06:07:07.243Z,77.56
2022-08-18T06:09:47.217Z,77.11
2022-08-18T06:12:29.229Z,77.57
2022-08-18T06:15:20.617Z,76.69
2022-08-18T06:18:02.153Z,76.84
2022-08-18T06:20:32.960Z,78.12
2022-08-18T06:23:27.236Z,76.78
2022-08-18T06:26:16.334Z,77.11
2022-08-18T06:29:02.204Z,76.85
2022-08-18T06:31:58.252Z,77.20
2022-08-18T06:34:38.710Z,77.20
2022-08-18T06:37:33.320Z,76.77
2022-08-18T06:40:03.605Z,77.79
2022-08-18T06:42:36.527Z,77.63
2022-08-18T06:45:19.596Z,77.47
2022-08-18T06:48:02.633Z,76.92
2022-08-18T06:50:45.831Z,76.67
2022-08-18T06:53:26.933Z,77.22
2022-08-18T06:55:58.782Z,77.19
2022-08-18T06:58:32.814Z,77.11
2022-08-18T07:01:07.915Z,76.79
2022-08-18T07:03:38.412Z,76.76
2022-08-18T07:06:22.658Z,76.28
2022-08-18T07:08:55.507Z,76.31
2022-08-18T07:11:30.111Z,76.44
2022-08-18T07:14:30.000Z,75.29
2022-08-18T07:17:42.851Z,75.52
2022-08-18T07:20:26.943Z,75.92
2022-08-18T07:23:01.016Z,76.25
2022-08-18T07:25:39.975Z,76.64
2022-08-18T07:28:28.563Z,76.72
2022-08-18T07:31:17.748Z,75.45
2022-08-18T07:34:03.415Z,75.69
2022-08-18T07:36:42.661Z,76.19
2022-08-18T07:39:40.619Z,75.67
2022-08-18T07:43:02.031Z,75.54
2022-08-18T07:45:38.504Z,76.55
2022-08-18T07:51:38.299Z,75.68
2022-08-18T07:54:31.207Z,76.27
2022-08-18T07:57:20.325Z,76.59
2022-08-18T07:59:58.662Z,76.76
2022-08-18T08:02:50.572Z,76.07
2022-08-18T08:06:02.479Z,75.66
2022-08-18T08:08:52.971Z,75.96
2022-08-18T08:11:45.561Z,76.60
2022-08-18T08:14:21.691Z,77.10
2022-08-18T08:17:18.573Z,75.84
2022-08-18T08:20:04.689Z,76.88
2022-08-18T08:23:13.403Z,75.97
2022-08-18T08:26:48.897Z,75.79
2022-08-18T08:29:25.199Z,76.78
2022-08-18T08:32:05.955Z,76.18
2022-08-18T08:34:54.554Z,76.27
2022-08-18T08:37:44.023Z,76.24
2022-08-18T08:40:55.871Z,76.22
2022-08-18T08:44:17.377Z,75.50
2022-08-18T08:50:23.902Z,75.96
2022-08-18T08:53:03.652Z,76.44
2022-08-18T08:55:47.477Z,76.34
2022-08-18T08:58:41.334Z,75.74
2022-08-18T09:01:35.914Z,75.89
2022-08-18T09:05:07.510Z,75.04
2022-08-18T09:07:52.921Z,75.99
2022-08-18T09:10:43.698Z,75.78
2022-08-18T09:13:50.076Z,75.76
2022-08-18T09:16:48.805Z,76.07
2022-08-18T09:19:46.507Z,75.71
2022-08-18T09:22:18.776Z,76.83
2022-08-18T09:24:54.218Z,76.28
2022-08-18T09:27:48.542Z,76.97
2022-08-18T09:30:51.292Z,75.66
2022-08-18T09:37:55.352Z,75.84
2022-08-18T09:41:03.300Z,76.81
2022-08-18T09:47:47.986Z,76.86
2022-08-18T09:50:28.304Z,77.24
2022-08-18T09:53:56.700Z,75.86
2022-08-18T09:56:55.678Z,76.22
2022-08-18T09:59:35.256Z,76.38
2022-08-18T10:02:38.626Z,76.28
2022-08-18T10:11:12.096Z,76.55
2022-08-18T10:13:25.898Z,76.28
2022-08-18T10:17:13.522Z,75.91
2022-08-18T10:20:07.228Z,76.18
2022-08-18T10:22:51.148Z,76.70
2022-08-18T10:25:44.155Z,76.25
2022-08-18T10:28:52.547Z,76.06
2022-08-18T10:31:24.168Z,77.40
2022-08-18T10:34:00.499Z,76.68
2022-08-18T10:37:06.283Z,75.86
2022-08-18T10:39:43.986Z,76.65
2022-08-18T10:42:40.063Z,76.08
2022-08-18T10:46:25.219Z,76.22
2022-08-18T10:52:23.073Z,77.01
2022-08-18T10:55:47.726Z,76.41
2022-08-18T10:59:16.004Z,76.43
2022-08-18T11:05:25.202Z,77.04
2022-08-18T11:08:28.004Z,75.94
2022-08-18T11:11:24.562Z,77.26
2022-08-18T11:13:59.820Z,77.54
2022-08-18T11:16:49.764Z,76.95
2022-08-18T11:19:25.969Z,77.41
2022-08-18T11:21:56.981Z,77.38
2022-08-18T11:24:34.026Z,77.14
2022-08-18T11:30:05.686Z,77.27
2022-08-18T11:32:51.825Z,77.11
2022-08-18T11:35:32.788Z,76.87
2022-08-18T11:38:23.265Z,76.48
2022-08-18T11:41:13.554Z,77.10
2022-08-18T11:43:47.565Z,77.41
2022-08-18T11:49:31.330Z,76.86
2022-08-18T11:52:19.817Z,77.27
2022-08-18T11:55:16.432Z,76.92
2022-08-18T11:57:58.991Z,77.08
2022-08-18T12:00:48.253Z,77.22
2022-08-18T12:03:46.478Z,76.77
2022-08-18T12:06:33.877Z,77.14
2022-08-18T12:09:37.008Z,77.45
2022-08-18T12:12:20.667Z,77.09
2022-08-18T12:15:13.615Z,76.52
2022-08-18T12:17:52.667Z,77.33
2022-08-18T12:20:25.014Z,77.44
2022-08-18T12:23:00.839Z,77.43
2022-08-18T12:25:34.843Z,77.71
2022-08-18T12:28:11.094Z,77.70
2022-08-18T12:30:42.357Z,77.85
2022-08-18T12:33:18.198Z,77.46
2022-08-18T12:35:59.521Z,77.44
2022-08-18T12:38:30.562Z,77.41
2022-08-18T12:46:46.432Z,77.51
2022-08-18T12:49:26.983Z,76.85
2022-08-18T12:51:57.168Z,77.77
2022-08-18T12:54:35.061Z,77.70
2022-08-18T12:57:11.194Z,77.63
2022-08-18T12:59:41.770Z,75.87
2022-08-18T13:02:12.952Z,77.31
2022-08-18T13:04:43.453Z,77.77
2022-08-18T13:07:18.922Z,77.46
2022-08-18T13:09:53.586Z,77.56
2022-08-18T13:12:27.531Z,77.58
2022-08-18T13:14:59.535Z,77.67
2022-08-18T13:17:33.626Z,77.56
2022-08-18T13:20:09.694Z,77.68
2022-08-18T13:22:52.137Z,77.37
2022-08-18T13:25:32.975Z,77.34
2022-08-18T13:28:12.626Z,77.56
2022-08-18T13:30:47.007Z,77.36
2022-08-18T13:33:56.365Z,77.79
2022-08-18T13:36:10.733Z,77.82
2022-08-18T13:38:44.399Z,77.43
2022-08-18T13:41:15.760Z,77.35
2022-08-18T13:43:58.377Z,76.94
2022-08-18T13:46:35.606Z,77.74
2022-08-18T13:49:15.596Z,77.25
2022-08-18T13:51:51.823Z,77.78
2022-08-18T13:54:35.213Z,77.15
2022-08-18T13:57:15.867Z,77.75
2022-08-18T14:00:02.345Z,77.42
2022-08-18T14:02:43.121Z,77.51
2022-08-18T14:05:17.743Z,77.21
2022-08-18T14:07:49.282Z,77.65
2022-08-18T14:10:29.283Z,77.53
2022-08-18T14:13:19.939Z,77.65
2022-08-18T14:15:59.535Z,77.27
2022-08-18T14:18:32.081Z,77.47
2022-08-18T14:21:23.058Z,77.88
2022-08-18T14:24:14.625Z,77.98
2022-08-18T14:26:50.708Z,77.80
2022-08-18T14:29:46.479Z,77.39
2022-08-18T14:32:28.519Z,77.83
2022-08-18T14:35:32.978Z,77.73
2022-08-18T14:37:57.080Z,77.55
2022-08-18T14:40:30.305Z,78.17
2022-08-18T14:43:08.589Z,77.76
2022-08-18T14:45:58.238Z,77.95
2022-08-18T14:48:50.706Z,77.05
2022-08-18T14:51:35.028Z,78.29
2022-08-18T14:54:09.418Z,79.37
2022-08-18T14:56:49.584Z,78.74
2022-08-18T14:59:21.179Z,78.08
2022-08-18T15:01:51.910Z,78.32
2022-08-18T15:04:24.338Z,78.23
2022-08-18T15:06:56.345Z,78.43
2022-08-18T15:09:29.005Z,78.05
2022-08-18T15:12:01.419Z,78.19
2022-08-18T15:14:36.335Z,77.90
2022-08-18T15:17:18.894Z,77.57
2022-08-18T15:20:01.227Z,78.23
2022-08-18T15:22:50.659Z,77.96
2022-08-18T15:25:43.467Z,78.24
2022-08-18T15:28:27.796Z,77.27
2022-08-18T15:33:51.780Z,77.81
2022-08-18T15:36:29.332Z,78.14
2022-08-18T15:39:02.246Z,78.04
2022-08-18T15:41:46.657Z,77.77
2022-08-18T15:44:29.767Z,78.28
2022-08-18T15:47:09.916Z,78.12
2022-08-18T15:49:44.691Z,78.22
2022-08-18T15:52:17.454Z,77.90
2022-08-18T15:54:52.526Z,78.23
2022-08-18T15:57:39.699Z,78.08
2022-08-18T16:00:18.593Z,77.89
2022-08-18T16:02:58.448Z,77.50
2022-08-18T16:05:45.326Z,77.58
2022-08-18T16:08:19.329Z,77.61
2022-08-18T16:10:58.161Z,77.61
2022-08-18T16:13:34.193Z,77.75
2022-08-18T16:16:29.220Z,77.15
2022-08-18T16:19:09.486Z,77.48
2022-08-18T16:21:41.309Z,77.96
2022-08-18T16:24:14.534Z,78.11
2022-08-18T16:26:47.195Z,77.85
2022-08-18T16:29:18.957Z,77.70
2022-08-18T16:31:52.380Z,77.91
2022-08-18T16:34:23.357Z,77.90
2022-08-18T16:36:53.830Z,78.15
2022-08-18T16:39:25.771Z,78.24
2022-08-18T16:41:56.952Z,77.64
2022-08-18T16:44:34.136Z,77.87
2022-08-18T16:47:17.238Z,77.88
2022-08-18T16:49:50.100Z,78.36
2022-08-18T16:52:23.289Z,78.27
2022-08-18T16:54:57.702Z,78.53
2022-08-18T16:57:54.102Z,78.19
2022-08-18T17:00:44.006Z,76.65
2022-08-18T17:03:32.624Z,78.17
2022-08-18T17:06:09.187Z,77.82
2022-08-18T17:08:44.971Z,77.83
2022-08-18T17:11:22.199Z,78.36
2022-08-18T17:13:54.053Z,78.50
2022-08-18T17:16:27.597Z,78.22
2022-08-18T17:19:01.770Z,78.37
2022-08-18T17:21:45.950Z,77.76
2022-08-18T17:24:17.987Z,78.19
2022-08-18T17:26:57.061Z,77.36
2022-08-18T17:29:46.609Z,77.85
2022-08-18T17:32:26.912Z,78.14
2022-08-18T17:35:05.569Z,78.32
2022-08-18T17:37:38.717Z,78.67
2022-08-18T17:40:40.393Z,78.13
2022-08-18T17:43:16.638Z,77.94
2022-08-18T17:45:51.196Z,78.19
2022-08-18T17:48:35.709Z,77.47
2022-08-18T17:51:35.846Z,77.73
2022-08-18T17:54:34.140Z,77.49
2022-08-18T17:57:09.731Z,78.09
2022-08-18T18:00:12.549Z,77.18
2022-08-18T18:02:46.968Z,77.61
2022-08-18T18:05:20.649Z,77.74
2022-08-18T18:07:51.868Z,77.60
2022-08-18T18:10:31.430Z,77.47
2022-08-18T18:13:32.905Z,76.92
2022-08-18T18:16:23.280Z,77.43
2022-08-18T18:19:05.586Z,77.76
2022-08-18T18:22:01.049Z,77.76
2022-08-18T18:24:35.893Z,77.46
2022-08-18T18:27:32.921Z,77.12
2022-08-18T18:30:07.633Z,77.55
2022-08-18T18:32:59.406Z,77.16
2022-08-18T18:35:34.138Z,78.02
2022-08-18T18:38:27.745Z,78.16
2022-08-18T18:41:15.498Z,77.50
2022-08-18T18:43:52.676Z,77.61
2022-08-18T18:46:35.642Z,77.14
2022-08-18T18:49:13.350Z,77.43
2022-08-18T18:52:26.695Z,77.45
2022-08-18T18:55:05.991Z,77.70
2022-08-18T18:57:51.841Z,76.74
2022-08-18T19:00:53.724Z,77.91
2022-08-18T19:03:35.060Z,77.74
2022-08-18T19:06:36.416Z,77.79
2022-08-18T19:09:23.302Z,77.92
2022-08-18T19:12:14.648Z,79.11
2022-08-18T19:15:00.669Z,78.28
2022-08-18T19:17:55.590Z,77.31
2022-08-18T19:22:01.674Z,77.33
2022-08-18T19:23:48.044Z,77.57
2022-08-18T19:26:35.278Z,77.59
2022-08-18T19:29:16.030Z,78.05
2022-08-18T19:32:04.855Z,77.98
2022-08-18T19:34:47.605Z,78.01
2022-08-18T19:37:31.580Z,78.06
2022-08-18T19:40:16.721Z,77.58
2022-08-18T19:43:30.981Z,77.49
2022-08-18T19:46:12.317Z,78.57
2022-08-18T19:48:48.543Z,77.97
2022-08-18T19:51:45.782Z,78.36
2022-08-18T19:54:25.704Z,78.14
2022-08-18T19:57:05.742Z,77.95
2022-08-18T20:00:13.352Z,78.48
2022-08-18T20:02:54.280Z,78.01
2022-08-18T20:05:32.818Z,78.19
2022-08-18T20:08:26.927Z,77.82
2022-08-18T20:11:41.739Z,77.58
2022-08-18T20:14:17.232Z,78.59
2022-08-18T20:17:06.945Z,78.26
2022-08-18T20:19:58.637Z,78.33
2022-08-18T20:22:46.622Z,78.10
2022-08-18T20:25:19.797Z,78.44
2022-08-18T20:28:24.814Z,77.75
2022-08-18T20:31:08.552Z,77.81
2022-08-18T20:33:47.520Z,78.67
2022-08-18T20:36:38.977Z,78.08
2022-08-18T20:39:36.352Z,77.84
2022-08-18T20:42:30.576Z,79.19
2022-08-18T20:45:24.941Z,79.31
2022-08-18T20:48:30.484Z,79.72
2022-08-18T20:51:04.753Z,78.83
2022-08-18T20:53:50.973Z,79.92
2022-08-18T20:56:45.454Z,79.43
2022-08-18T20:59:22.807Z,80.31
2022-08-18T21:02:02.165Z,79.94
2022-08-18T21:04:38.157Z,79.57
2022-08-18T21:07:36.511Z,81.22
2022-08-18T21:10:26.311Z,80.26
2022-08-18T21:12:59.230Z,81.09
2022-08-18T21:15:30.586Z,80.78
2022-08-18T21:18:08.352Z,81.18
2022-08-18T21:20:39.065Z,79.29
2022-08-18T21:23:12.917Z,80.47
2022-08-18T21:25:55.189Z,79.81
2022-08-18T21:28:29.649Z,79.51
2022-08-18T21:31:42.230Z,79.14
2022-08-18T21:34:06.116Z,79.44
2022-08-18T21:36:38.469Z,79.12
2022-08-18T21:39:17.190Z,78.85
2022-08-18T21:41:49.504Z,78.78
2022-08-18T21:44:36.377Z,78.44
2022-08-18T21:47:21.772Z,78.28
2022-08-18T21:50:24.422Z,77.99
2022-08-18T21:53:15.809Z,78.01
2022-08-18T21:55:51.380Z,78.21
2022-08-18T21:58:33.986Z,78.33
2022-08-18T22:01:22.575Z,77.49
2022-08-18T22:04:22.042Z,77.75
2022-08-18T22:07:04.231Z,77.50
2022-08-18T22:09:54.703Z,76.80
2022-08-18T22:12:52.499Z,76.29
2022-08-18T22:15:42.231Z,70.11
2022-08-18T22:18:20.072Z,68.10
2022-08-18T22:20:56.209Z,65.88
2022-08-18T22:23:55.784Z,59.86
2022-08-18T22:26:34.493Z,60.70
2022-08-18T22:29:28.225Z,62.66
2022-08-18T22:31:58.423Z,61.73
2022-08-18T22:34:31.624Z,59.39
2022-08-18T22:37:13.973Z,58.19
2022-08-18T22:39:57.838Z,60.74
2022-08-18T22:42:33.343Z,63.85
2022-08-18T22:45:06.504Z,65.10
2022-08-18T22:47:42.884Z,53.14
2022-08-18T22:50:15.257Z,54.52
2022-08-18T22:52:50.875Z,53.03
2022-08-18T22:55:23.721Z,53.21
2022-08-18T22:57:55.767Z,51.28
2022-08-18T23:00:27.614Z,51.81
2022-08-18T23:02:58.713Z,49.33
2022-08-18T23:05:29.802Z,53.61
2022-08-18T23:07:59.833Z,49.17
2022-08-18T23:10:29.967Z,50.55
2022-08-18T23:13:04.242Z,48.82
2022-08-18T23:15:49.517Z,48.78
2022-08-18T23:18:21.925Z,51.26
2022-08-18T23:20:56.686Z,51.62
2022-08-18T23:23:29.061Z,51.69
2022-08-18T23:26:00.367Z,50.16
2022-08-18T23:28:30.626Z,50.87
2022-08-18T23:31:00.786Z,48.00
2022-08-18T23:33:30.806Z,51.52
2022-08-18T23:36:00.892Z,48.45
2022-08-18T23:38:31.546Z,52.06
2022-08-18T23:41:02.117Z,49.90
2022-08-18T23:43:32.826Z,50.00
2022-08-18T23:46:04.017Z,49.26
2022-08-18T23:48:34.064Z,46.97
2022-08-18T23:51:04.378Z,47.61
2022-08-18T23:53:34.425Z,47.67
2022-08-18T23:56:04.520Z,49.08
2022-08-18T23:58:34.492Z,46.93
